sensor_id;sensor_type;location;lat;lon;timestamp;P1;durP1;ratioP1;P2;durP2;ratioP2
22470;SDS011;11402;51.374;6.594;2023-06-22T00:01:54;10.48;;;7.20;;
22470;SDS011;11402;51.374;6.594;2023-06-22T00:04:20;10.82;;;8.20;;
22470;SDS011;11402;51.374;6.594;2023-06-22T00:06:46;12.95;;;8.07;;
22470;SDS011;11402;51.374;6.594;2023-06-22T00:09:11;13.40;;;8.25;;
22470;SDS011;11402;51.374;6.594;2023-06-22T00:11:37;13.60;;;8.98;;
22470;SDS011;11402;51.374;6.594;2023-06-22T00:14:03;14.57;;;8.90;;
22470;SDS011;11402;51.374;6.594;2023-06-22T00:16:30;15.52;;;9.73;;
22470;SDS011;11402;51.374;6.594;2023-06-22T00:18:57;14.30;;;8.60;;
22470;SDS011;11402;51.374;6.594;2023-06-22T00:21:25;15.00;;;9.43;;
22470;SDS011;11402;51.374;6.594;2023-06-22T00:23:51;12.38;;;9.48;;
22470;SDS011;11402;51.374;6.594;2023-06-22T00:26:17;16.10;;;8.98;;
22470;SDS011;11402;51.374;6.594;2023-06-22T00:28:42;18.17;;;9.55;;
22470;SDS011;11402;51.374;6.594;2023-06-22T00:31:08;17.00;;;10.55;;
22470;SDS011;11402;51.374;6.594;2023-06-22T00:33:34;14.07;;;10.73;;
22470;SDS011;11402;51.374;6.594;2023-06-22T00:35:59;14.63;;;9.43;;
22470;SDS011;11402;51.374;6.594;2023-06-22T00:38:25;17.42;;;11.40;;
22470;SDS011;11402;51.374;6.594;2023-06-22T00:40:50;14.07;;;10.60;;
22470;SDS011;11402;51.374;6.594;2023-06-22T00:43:16;20.05;;;11.35;;
22470;SDS011;11402;51.374;6.594;2023-06-22T00:45:41;15.40;;;11.45;;
22470;SDS011;11402;51.374;6.594;2023-06-22T00:48:07;16.63;;;11.02;;
22470;SDS011;11402;51.374;6.594;2023-06-22T00:50:33;13.98;;;11.27;;
22470;SDS011;11402;51.374;6.594;2023-06-22T00:53:07;16.42;;;11.15;;
22470;SDS011;11402;51.374;6.594;2023-06-22T00:55:37;18.58;;;11.73;;
22470;SDS011;11402;51.374;6.594;2023-06-22T00:58:07;14.75;;;11.48;;
22470;SDS011;11402;51.374;6.594;2023-06-22T01:00:35;15.90;;;11.57;;
22470;SDS011;11402;51.374;6.594;2023-06-22T01:03:01;19.42;;;12.27;;
22470;SDS011;11402;51.374;6.594;2023-06-22T01:05:27;15.48;;;11.30;;
22470;SDS011;11402;51.374;6.594;2023-06-22T01:10:51;17.13;;;12.02;;
22470;SDS011;11402;51.374;6.594;2023-06-22T01:16:46;15.07;;;10.98;;
22470;SDS011;11402;51.374;6.594;2023-06-22T01:19:20;15.77;;;11.35;;
22470;SDS011;11402;51.374;6.594;2023-06-22T01:22:00;19.92;;;10.85;;
22470;SDS011;11402;51.374;6.594;2023-06-22T01:24:32;18.27;;;11.73;;
22470;SDS011;11402;51.374;6.594;2023-06-22T01:30:02;17.63;;;11.80;;
22470;SDS011;11402;51.374;6.594;2023-06-22T01:32:30;17.48;;;11.30;;
22470;SDS011;11402;51.374;6.594;2023-06-22T01:35:01;14.73;;;10.13;;
22470;SDS011;11402;51.374;6.594;2023-06-22T01:37:29;14.02;;;10.02;;
22470;SDS011;11402;51.374;6.594;2023-06-22T01:39:57;17.17;;;11.25;;
22470;SDS011;11402;51.374;6.594;2023-06-22T01:42:24;14.50;;;10.48;;
22470;SDS011;11402;51.374;6.594;2023-06-22T01:44:50;19.52;;;11.23;;
22470;SDS011;11402;51.374;6.594;2023-06-22T01:47:20;15.25;;;10.45;;
22470;SDS011;11402;51.374;6.594;2023-06-22T01:49:47;13.43;;;10.65;;
22470;SDS011;11402;51.374;6.594;2023-06-22T01:52:13;15.50;;;10.10;;
22470;SDS011;11402;51.374;6.594;2023-06-22T01:54:39;17.40;;;10.52;;
22470;SDS011;11402;51.374;6.594;2023-06-22T01:57:05;14.38;;;10.63;;
22470;SDS011;11402;51.374;6.594;2023-06-22T01:59:37;18.48;;;11.52;;
22470;SDS011;11402;51.374;6.594;2023-06-22T02:02:11;13.07;;;11.27;;
22470;SDS011;11402;51.374;6.594;2023-06-22T02:04:46;14.95;;;10.65;;
22470;SDS011;11402;51.374;6.594;2023-06-22T02:07:17;20.50;;;10.85;;
22470;SDS011;11402;51.374;6.594;2023-06-22T02:09:44;15.68;;;10.90;;
22470;SDS011;11402;51.374;6.594;2023-06-22T02:12:12;16.80;;;10.98;;
22470;SDS011;11402;51.374;6.594;2023-06-22T02:14:42;14.95;;;11.68;;
22470;SDS011;11402;51.374;6.594;2023-06-22T02:17:08;20.15;;;11.38;;
22470;SDS011;11402;51.374;6.594;2023-06-22T02:19:37;15.52;;;11.13;;
22470;SDS011;11402;51.374;6.594;2023-06-22T02:22:05;17.73;;;10.70;;
22470;SDS011;11402;51.374;6.594;2023-06-22T02:24:31;16.63;;;10.95;;
22470;SDS011;11402;51.374;6.594;2023-06-22T02:26:58;15.27;;;11.13;;
22470;SDS011;11402;51.374;6.594;2023-06-22T02:29:25;15.52;;;11.30;;
22470;SDS011;11402;51.374;6.594;2023-06-22T02:31:51;14.00;;;11.48;;
22470;SDS011;11402;51.374;6.594;2023-06-22T02:34:17;17.02;;;12.13;;
22470;SDS011;11402;51.374;6.594;2023-06-22T02:36:47;13.40;;;10.73;;
22470;SDS011;11402;51.374;6.594;2023-06-22T02:39:20;15.82;;;11.35;;
22470;SDS011;11402;51.374;6.594;2023-06-22T02:41:50;19.08;;;11.75;;
22470;SDS011;11402;51.374;6.594;2023-06-22T02:44:17;20.10;;;12.77;;
22470;SDS011;11402;51.374;6.594;2023-06-22T02:46:43;17.33;;;11.98;;
22470;SDS011;11402;51.374;6.594;2023-06-22T02:49:10;22.27;;;12.80;;
22470;SDS011;11402;51.374;6.594;2023-06-22T02:51:37;17.60;;;12.43;;
22470;SDS011;11402;51.374;6.594;2023-06-22T02:54:04;16.00;;;12.68;;
22470;SDS011;11402;51.374;6.594;2023-06-22T02:56:30;19.75;;;12.25;;
22470;SDS011;11402;51.374;6.594;2023-06-22T02:58:56;19.40;;;12.82;;
22470;SDS011;11402;51.374;6.594;2023-06-22T03:01:26;18.92;;;13.55;;
22470;SDS011;11402;51.374;6.594;2023-06-22T03:03:56;18.38;;;13.95;;
22470;SDS011;11402;51.374;6.594;2023-06-22T03:06:21;17.23;;;13.20;;
22470;SDS011;11402;51.374;6.594;2023-06-22T03:08:48;18.15;;;13.18;;
22470;SDS011;11402;51.374;6.594;2023-06-22T03:11:14;18.60;;;13.70;;
22470;SDS011;11402;51.374;6.594;2023-06-22T03:13:40;16.45;;;13.98;;
22470;SDS011;11402;51.374;6.594;2023-06-22T03:16:05;18.77;;;14.10;;
22470;SDS011;11402;51.374;6.594;2023-06-22T03:18:31;18.48;;;14.48;;
22470;SDS011;11402;51.374;6.594;2023-06-22T03:20:56;17.45;;;14.15;;
22470;SDS011;11402;51.374;6.594;2023-06-22T03:23:22;18.92;;;14.02;;
22470;SDS011;11402;51.374;6.594;2023-06-22T03:25:48;16.08;;;14.38;;
22470;SDS011;11402;51.374;6.594;2023-06-22T03:28:13;19.67;;;14.77;;
22470;SDS011;11402;51.374;6.594;2023-06-22T03:30:39;18.35;;;14.77;;
22470;SDS011;11402;51.374;6.594;2023-06-22T03:33:04;22.73;;;14.68;;
22470;SDS011;11402;51.374;6.594;2023-06-22T03:35:30;21.13;;;14.93;;
22470;SDS011;11402;51.374;6.594;2023-06-22T03:37:55;19.17;;;15.43;;
22470;SDS011;11402;51.374;6.594;2023-06-22T03:40:21;20.02;;;15.48;;
22470;SDS011;11402;51.374;6.594;2023-06-22T03:42:47;20.42;;;15.35;;
22470;SDS011;11402;51.374;6.594;2023-06-22T03:45:12;19.10;;;15.48;;
22470;SDS011;11402;51.374;6.594;2023-06-22T03:47:38;19.50;;;15.57;;
22470;SDS011;11402;51.374;6.594;2023-06-22T03:50:04;24.15;;;15.50;;
22470;SDS011;11402;51.374;6.594;2023-06-22T03:52:30;19.20;;;14.77;;
22470;SDS011;11402;51.374;6.594;2023-06-22T03:54:56;18.58;;;14.93;;
22470;SDS011;11402;51.374;6.594;2023-06-22T03:57:22;21.65;;;15.60;;
22470;SDS011;11402;51.374;6.594;2023-06-22T03:59:47;18.15;;;14.98;;
22470;SDS011;11402;51.374;6.594;2023-06-22T04:02:13;24.23;;;16.33;;
22470;SDS011;11402;51.374;6.594;2023-06-22T04:04:39;20.60;;;16.38;;
22470;SDS011;11402;51.374;6.594;2023-06-22T04:07:05;22.00;;;16.08;;
22470;SDS011;11402;51.374;6.594;2023-06-22T04:09:30;21.85;;;16.23;;
22470;SDS011;11402;51.374;6.594;2023-06-22T04:11:56;20.38;;;16.27;;
22470;SDS011;11402;51.374;6.594;2023-06-22T04:14:21;18.95;;;15.63;;
22470;SDS011;11402;51.374;6.594;2023-06-22T04:16:47;20.15;;;15.57;;
22470;SDS011;11402;51.374;6.594;2023-06-22T04:19:12;20.55;;;16.38;;
22470;SDS011;11402;51.374;6.594;2023-06-22T04:21:42;20.63;;;16.30;;
22470;SDS011;11402;51.374;6.594;2023-06-22T04:24:09;20.23;;;15.63;;
22470;SDS011;11402;51.374;6.594;2023-06-22T04:26:35;19.73;;;16.30;;
22470;SDS011;11402;51.374;6.594;2023-06-22T04:29:02;20.67;;;15.35;;
22470;SDS011;11402;51.374;6.594;2023-06-22T04:31:33;19.75;;;16.85;;
22470;SDS011;11402;51.374;6.594;2023-06-22T04:34:02;22.10;;;16.65;;
22470;SDS011;11402;51.374;6.594;2023-06-22T04:36:40;20.52;;;16.35;;
22470;SDS011;11402;51.374;6.594;2023-06-22T04:39:09;19.60;;;15.82;;
22470;SDS011;11402;51.374;6.594;2023-06-22T04:41:36;21.60;;;16.55;;
22470;SDS011;11402;51.374;6.594;2023-06-22T04:44:17;23.63;;;16.77;;
22470;SDS011;11402;51.374;6.594;2023-06-22T04:46:49;20.05;;;15.95;;
22470;SDS011;11402;51.374;6.594;2023-06-22T04:49:19;19.63;;;15.23;;
22470;SDS011;11402;51.374;6.594;2023-06-22T04:51:46;21.80;;;15.63;;
22470;SDS011;11402;51.374;6.594;2023-06-22T04:54:11;22.33;;;16.52;;
22470;SDS011;11402;51.374;6.594;2023-06-22T04:56:37;21.30;;;16.48;;
22470;SDS011;11402;51.374;6.594;2023-06-22T04:59:05;23.60;;;16.83;;
22470;SDS011;11402;51.374;6.594;2023-06-22T05:01:31;28.55;;;16.95;;
22470;SDS011;11402;51.374;6.594;2023-06-22T05:03:57;22.42;;;15.98;;
22470;SDS011;11402;51.374;6.594;2023-06-22T05:06:25;26.92;;;17.40;;
22470;SDS011;11402;51.374;6.594;2023-06-22T05:08:55;18.60;;;15.88;;
22470;SDS011;11402;51.374;6.594;2023-06-22T05:11:22;21.70;;;16.67;;
22470;SDS011;11402;51.374;6.594;2023-06-22T05:13:52;22.63;;;16.77;;
22470;SDS011;11402;51.374;6.594;2023-06-22T05:16:18;21.77;;;17.50;;
22470;SDS011;11402;51.374;6.594;2023-06-22T05:18:48;21.92;;;17.27;;
22470;SDS011;11402;51.374;6.594;2023-06-22T05:21:20;23.45;;;17.60;;
22470;SDS011;11402;51.374;6.594;2023-06-22T05:23:50;21.67;;;17.73;;
22470;SDS011;11402;51.374;6.594;2023-06-22T05:26:16;23.10;;;18.00;;
22470;SDS011;11402;51.374;6.594;2023-06-22T05:28:42;20.50;;;17.17;;
22470;SDS011;11402;51.374;6.594;2023-06-22T05:31:11;23.10;;;17.52;;
22470;SDS011;11402;51.374;6.594;2023-06-22T05:33:40;25.45;;;18.58;;
22470;SDS011;11402;51.374;6.594;2023-06-22T05:36:09;24.50;;;18.42;;
22470;SDS011;11402;51.374;6.594;2023-06-22T05:38:35;26.08;;;18.65;;
22470;SDS011;11402;51.374;6.594;2023-06-22T05:41:01;22.15;;;18.15;;
22470;SDS011;11402;51.374;6.594;2023-06-22T05:43:27;23.48;;;18.80;;
22470;SDS011;11402;51.374;6.594;2023-06-22T05:45:53;24.38;;;18.48;;
22470;SDS011;11402;51.374;6.594;2023-06-22T05:48:19;20.30;;;17.65;;
22470;SDS011;11402;51.374;6.594;2023-06-22T05:50:44;21.63;;;17.80;;
22470;SDS011;11402;51.374;6.594;2023-06-22T05:53:10;23.95;;;17.83;;
22470;SDS011;11402;51.374;6.594;2023-06-22T05:55:35;21.05;;;18.33;;
22470;SDS011;11402;51.374;6.594;2023-06-22T05:58:01;20.98;;;17.63;;
22470;SDS011;11402;51.374;6.594;2023-06-22T06:00:28;23.67;;;17.02;;
22470;SDS011;11402;51.374;6.594;2023-06-22T06:02:54;25.48;;;17.80;;
22470;SDS011;11402;51.374;6.594;2023-06-22T06:05:19;26.77;;;17.70;;
22470;SDS011;11402;51.374;6.594;2023-06-22T06:07:45;19.45;;;17.05;;
22470;SDS011;11402;51.374;6.594;2023-06-22T06:10:11;24.58;;;17.85;;
22470;SDS011;11402;51.374;6.594;2023-06-22T06:12:37;20.25;;;16.58;;
22470;SDS011;11402;51.374;6.594;2023-06-22T06:15:03;21.17;;;16.40;;
22470;SDS011;11402;51.374;6.594;2023-06-22T06:17:29;24.08;;;16.80;;
22470;SDS011;11402;51.374;6.594;2023-06-22T06:19:55;21.20;;;16.98;;
22470;SDS011;11402;51.374;6.594;2023-06-22T06:22:21;24.80;;;16.52;;
22470;SDS011;11402;51.374;6.594;2023-06-22T06:24:48;20.95;;;15.52;;
22470;SDS011;11402;51.374;6.594;2023-06-22T06:27:14;25.85;;;16.38;;
22470;SDS011;11402;51.374;6.594;2023-06-22T06:29:40;22.52;;;16.05;;
22470;SDS011;11402;51.374;6.594;2023-06-22T06:32:05;21.20;;;16.60;;
22470;SDS011;11402;51.374;6.594;2023-06-22T06:34:31;23.40;;;16.65;;
22470;SDS011;11402;51.374;6.594;2023-06-22T06:36:57;20.83;;;15.80;;
22470;SDS011;11402;51.374;6.594;2023-06-22T06:39:22;23.80;;;16.67;;
22470;SDS011;11402;51.374;6.594;2023-06-22T06:41:48;22.50;;;16.42;;
22470;SDS011;11402;51.374;6.594;2023-06-22T06:44:14;23.20;;;15.70;;
22470;SDS011;11402;51.374;6.594;2023-06-22T06:46:39;23.33;;;15.98;;
22470;SDS011;11402;51.374;6.594;2023-06-22T06:49:06;20.10;;;15.18;;
22470;SDS011;11402;51.374;6.594;2023-06-22T06:51:32;25.63;;;16.02;;
22470;SDS011;11402;51.374;6.594;2023-06-22T06:53:57;22.58;;;15.90;;
22470;SDS011;11402;51.374;6.594;2023-06-22T06:56:23;21.92;;;16.25;;
22470;SDS011;11402;51.374;6.594;2023-06-22T06:58:49;25.50;;;15.38;;
22470;SDS011;11402;51.374;6.594;2023-06-22T07:01:16;24.08;;;16.42;;
22470;SDS011;11402;51.374;6.594;2023-06-22T07:03:41;37.10;;;28.30;;
22470;SDS011;11402;51.374;6.594;2023-06-22T07:06:08;22.35;;;15.48;;
22470;SDS011;11402;51.374;6.594;2023-06-22T07:08:34;18.73;;;14.82;;
22470;SDS011;11402;51.374;6.594;2023-06-22T07:11:01;16.55;;;13.73;;
22470;SDS011;11402;51.374;6.594;2023-06-22T07:13:27;16.63;;;14.23;;
22470;SDS011;11402;51.374;6.594;2023-06-22T07:15:53;16.77;;;12.93;;
22470;SDS011;11402;51.374;6.594;2023-06-22T07:18:18;17.13;;;12.48;;
22470;SDS011;11402;51.374;6.594;2023-06-22T07:20:44;16.30;;;13.07;;
22470;SDS011;11402;51.374;6.594;2023-06-22T07:23:10;19.58;;;13.52;;
22470;SDS011;11402;51.374;6.594;2023-06-22T07:25:35;20.77;;;13.70;;
22470;SDS011;11402;51.374;6.594;2023-06-22T07:28:02;17.00;;;12.75;;
22470;SDS011;11402;51.374;6.594;2023-06-22T07:30:29;19.25;;;14.65;;
22470;SDS011;11402;51.374;6.594;2023-06-22T07:32:56;17.73;;;14.18;;
22470;SDS011;11402;51.374;6.594;2023-06-22T07:35:23;20.80;;;14.13;;
22470;SDS011;11402;51.374;6.594;2023-06-22T07:37:49;19.23;;;13.55;;
22470;SDS011;11402;51.374;6.594;2023-06-22T07:40:14;17.80;;;13.27;;
22470;SDS011;11402;51.374;6.594;2023-06-22T07:42:40;20.08;;;13.32;;
22470;SDS011;11402;51.374;6.594;2023-06-22T07:45:06;22.75;;;14.05;;
22470;SDS011;11402;51.374;6.594;2023-06-22T07:47:33;21.73;;;16.48;;
22470;SDS011;11402;51.374;6.594;2023-06-22T07:50:00;18.35;;;14.13;;
22470;SDS011;11402;51.374;6.594;2023-06-22T07:52:27;19.42;;;14.27;;
22470;SDS011;11402;51.374;6.594;2023-06-22T07:54:53;24.02;;;14.20;;
22470;SDS011;11402;51.374;6.594;2023-06-22T07:57:19;22.00;;;14.43;;
22470;SDS011;11402;51.374;6.594;2023-06-22T07:59:45;20.52;;;15.30;;
22470;SDS011;11402;51.374;6.594;2023-06-22T08:02:11;18.73;;;15.57;;
22470;SDS011;11402;51.374;6.594;2023-06-22T08:04:36;21.33;;;15.95;;
22470;SDS011;11402;51.374;6.594;2023-06-22T08:07:02;20.20;;;16.25;;
22470;SDS011;11402;51.374;6.594;2023-06-22T08:09:29;21.08;;;16.33;;
22470;SDS011;11402;51.374;6.594;2023-06-22T08:11:56;40.80;;;34.47;;
22470;SDS011;11402;51.374;6.594;2023-06-22T08:14:22;20.45;;;17.42;;
22470;SDS011;11402;51.374;6.594;2023-06-22T08:16:52;23.40;;;18.05;;
22470;SDS011;11402;51.374;6.594;2023-06-22T08:19:17;23.83;;;17.35;;
22470;SDS011;11402;51.374;6.594;2023-06-22T08:21:43;29.92;;;17.75;;
22470;SDS011;11402;51.374;6.594;2023-06-22T08:24:09;24.58;;;17.13;;
22470;SDS011;11402;51.374;6.594;2023-06-22T08:26:34;26.40;;;17.48;;
22470;SDS011;11402;51.374;6.594;2023-06-22T08:29:02;21.20;;;16.92;;
22470;SDS011;11402;51.374;6.594;2023-06-22T08:31:28;23.08;;;17.25;;
22470;SDS011;11402;51.374;6.594;2023-06-22T08:33:55;21.63;;;18.23;;
22470;SDS011;11402;51.374;6.594;2023-06-22T08:36:21;20.88;;;17.63;;
22470;SDS011;11402;51.374;6.594;2023-06-22T08:38:46;24.27;;;18.83;;
22470;SDS011;11402;51.374;6.594;2023-06-22T08:41:17;24.10;;;18.58;;
22470;SDS011;11402;51.374;6.594;2023-06-22T08:43:43;26.58;;;18.30;;
22470;SDS011;11402;51.374;6.594;2023-06-22T08:46:12;23.65;;;16.90;;
22470;SDS011;11402;51.374;6.594;2023-06-22T08:48:37;20.25;;;17.48;;
22470;SDS011;11402;51.374;6.594;2023-06-22T08:51:04;27.25;;;18.42;;
22470;SDS011;11402;51.374;6.594;2023-06-22T08:53:30;22.92;;;18.80;;
22470;SDS011;11402;51.374;6.594;2023-06-22T08:55:55;29.85;;;18.83;;
22470;SDS011;11402;51.374;6.594;2023-06-22T08:58:21;24.73;;;18.92;;
22470;SDS011;11402;51.374;6.594;2023-06-22T09:00:47;24.38;;;18.83;;
22470;SDS011;11402;51.374;6.594;2023-06-22T09:03:13;26.65;;;18.30;;
22470;SDS011;11402;51.374;6.594;2023-06-22T09:05:39;23.23;;;17.17;;
22470;SDS011;11402;51.374;6.594;2023-06-22T09:08:04;25.63;;;19.20;;
22470;SDS011;11402;51.374;6.594;2023-06-22T09:10:30;25.65;;;19.23;;
22470;SDS011;11402;51.374;6.594;2023-06-22T09:12:56;31.58;;;20.38;;
22470;SDS011;11402;51.374;6.594;2023-06-22T09:15:22;27.77;;;19.05;;
22470;SDS011;11402;51.374;6.594;2023-06-22T09:17:48;27.88;;;20.75;;
22470;SDS011;11402;51.374;6.594;2023-06-22T09:20:13;24.25;;;18.33;;
22470;SDS011;11402;51.374;6.594;2023-06-22T09:22:40;27.55;;;19.20;;
22470;SDS011;11402;51.374;6.594;2023-06-22T09:25:06;27.05;;;19.15;;
22470;SDS011;11402;51.374;6.594;2023-06-22T09:27:32;22.48;;;18.77;;
22470;SDS011;11402;51.374;6.594;2023-06-22T09:29:58;21.80;;;18.48;;
22470;SDS011;11402;51.374;6.594;2023-06-22T09:32:23;23.45;;;18.88;;
22470;SDS011;11402;51.374;6.594;2023-06-22T09:34:50;22.15;;;18.70;;
22470;SDS011;11402;51.374;6.594;2023-06-22T09:37:16;24.83;;;19.17;;
22470;SDS011;11402;51.374;6.594;2023-06-22T09:39:42;23.23;;;19.95;;
22470;SDS011;11402;51.374;6.594;2023-06-22T09:42:07;27.05;;;19.83;;
22470;SDS011;11402;51.374;6.594;2023-06-22T09:44:33;23.40;;;18.58;;
22470;SDS011;11402;51.374;6.594;2023-06-22T09:46:59;23.83;;;19.42;;
22470;SDS011;11402;51.374;6.594;2023-06-22T09:49:25;24.63;;;19.10;;
22470;SDS011;11402;51.374;6.594;2023-06-22T09:51:51;25.65;;;19.35;;
22470;SDS011;11402;51.374;6.594;2023-06-22T09:54:17;22.85;;;18.67;;
22470;SDS011;11402;51.374;6.594;2023-06-22T09:56:43;23.48;;;17.83;;
22470;SDS011;11402;51.374;6.594;2023-06-22T09:59:08;27.10;;;19.63;;
22470;SDS011;11402;51.374;6.594;2023-06-22T10:01:34;24.52;;;19.73;;
22470;SDS011;11402;51.374;6.594;2023-06-22T10:04:00;22.45;;;18.25;;
22470;SDS011;11402;51.374;6.594;2023-06-22T10:06:27;23.33;;;19.17;;
22470;SDS011;11402;51.374;6.594;2023-06-22T10:08:52;23.30;;;19.95;;
22470;SDS011;11402;51.374;6.594;2023-06-22T10:11:18;21.42;;;18.85;;
22470;SDS011;11402;51.374;6.594;2023-06-22T10:13:44;22.33;;;18.38;;
22470;SDS011;11402;51.374;6.594;2023-06-22T10:16:09;23.17;;;18.00;;
22470;SDS011;11402;51.374;6.594;2023-06-22T10:18:35;23.48;;;18.30;;
22470;SDS011;11402;51.374;6.594;2023-06-22T10:21:01;22.92;;;18.10;;
22470;SDS011;11402;51.374;6.594;2023-06-22T10:23:27;23.60;;;18.90;;
22470;SDS011;11402;51.374;6.594;2023-06-22T10:25:53;22.83;;;18.65;;
22470;SDS011;11402;51.374;6.594;2023-06-22T10:28:18;24.00;;;18.38;;
22470;SDS011;11402;51.374;6.594;2023-06-22T10:30:44;26.20;;;19.92;;
22470;SDS011;11402;51.374;6.594;2023-06-22T10:33:10;27.00;;;19.95;;
22470;SDS011;11402;51.374;6.594;2023-06-22T10:35:36;22.02;;;19.65;;
22470;SDS011;11402;51.374;6.594;2023-06-22T10:38:03;23.83;;;20.90;;
22470;SDS011;11402;51.374;6.594;2023-06-22T10:40:29;24.08;;;20.10;;
22470;SDS011;11402;51.374;6.594;2023-06-22T10:42:55;26.85;;;20.27;;
22470;SDS011;11402;51.374;6.594;2023-06-22T10:45:21;23.23;;;19.50;;
22470;SDS011;11402;51.374;6.594;2023-06-22T10:47:46;21.63;;;19.33;;
22470;SDS011;11402;51.374;6.594;2023-06-22T10:50:12;25.02;;;19.73;;
22470;SDS011;11402;51.374;6.594;2023-06-22T10:52:38;23.08;;;18.67;;
22470;SDS011;11402;51.374;6.594;2023-06-22T10:55:06;24.33;;;18.45;;
22470;SDS011;11402;51.374;6.594;2023-06-22T10:57:33;22.08;;;18.05;;
22470;SDS011;11402;51.374;6.594;2023-06-22T10:59:58;24.73;;;18.67;;
22470;SDS011;11402;51.374;6.594;2023-06-22T11:02:24;27.00;;;19.83;;
22470;SDS011;11402;51.374;6.594;2023-06-22T11:04:50;26.67;;;19.30;;
22470;SDS011;11402;51.374;6.594;2023-06-22T11:07:15;24.75;;;19.65;;
22470;SDS011;11402;51.374;6.594;2023-06-22T11:09:42;29.35;;;20.77;;
22470;SDS011;11402;51.374;6.594;2023-06-22T11:12:08;32.00;;;20.50;;
22470;SDS011;11402;51.374;6.594;2023-06-22T11:14:34;30.75;;;21.55;;
22470;SDS011;11402;51.374;6.594;2023-06-22T11:17:00;30.83;;;20.42;;
22470;SDS011;11402;51.374;6.594;2023-06-22T11:19:25;28.30;;;21.23;;
22470;SDS011;11402;51.374;6.594;2023-06-22T11:21:51;28.80;;;21.20;;
22470;SDS011;11402;51.374;6.594;2023-06-22T11:24:17;30.25;;;20.73;;
22470;SDS011;11402;51.374;6.594;2023-06-22T11:26:43;32.35;;;21.48;;
22470;SDS011;11402;51.374;6.594;2023-06-22T11:29:08;34.83;;;23.98;;
22470;SDS011;11402;51.374;6.594;2023-06-22T11:31:34;34.80;;;23.92;;
22470;SDS011;11402;51.374;6.594;2023-06-22T11:34:00;34.08;;;24.27;;
22470;SDS011;11402;51.374;6.594;2023-06-22T11:36:26;37.15;;;25.65;;
22470;SDS011;11402;51.374;6.594;2023-06-22T11:38:52;39.63;;;28.13;;
22470;SDS011;11402;51.374;6.594;2023-06-22T11:41:17;35.05;;;28.60;;
22470;SDS011;11402;51.374;6.594;2023-06-22T11:43:43;39.95;;;29.13;;
22470;SDS011;11402;51.374;6.594;2023-06-22T11:46:09;36.63;;;29.73;;
22470;SDS011;11402;51.374;6.594;2023-06-22T11:48:35;38.75;;;31.65;;
22470;SDS011;11402;51.374;6.594;2023-06-22T11:51:01;43.80;;;34.78;;
22470;SDS011;11402;51.374;6.594;2023-06-22T11:53:28;41.67;;;33.67;;
22470;SDS011;11402;51.374;6.594;2023-06-22T11:55:54;42.10;;;35.47;;
22470;SDS011;11402;51.374;6.594;2023-06-22T11:58:20;43.22;;;35.00;;
22470;SDS011;11402;51.374;6.594;2023-06-22T12:00:46;37.67;;;33.10;;
22470;SDS011;11402;51.374;6.594;2023-06-22T12:03:12;44.17;;;35.03;;
22470;SDS011;11402;51.374;6.594;2023-06-22T12:05:39;37.75;;;33.50;;
22470;SDS011;11402;51.374;6.594;2023-06-22T12:08:05;39.10;;;34.80;;
22470;SDS011;11402;51.374;6.594;2023-06-22T12:10:31;43.53;;;35.20;;
22470;SDS011;11402;51.374;6.594;2023-06-22T12:12:56;40.60;;;35.78;;
22470;SDS011;11402;51.374;6.594;2023-06-22T12:15:23;40.67;;;36.35;;
22470;SDS011;11402;51.374;6.594;2023-06-22T12:17:49;43.42;;;37.03;;
22470;SDS011;11402;51.374;6.594;2023-06-22T12:20:14;40.40;;;36.05;;
22470;SDS011;11402;51.374;6.594;2023-06-22T12:22:41;43.00;;;37.78;;
22470;SDS011;11402;51.374;6.594;2023-06-22T12:25:07;48.00;;;40.25;;
22470;SDS011;11402;51.374;6.594;2023-06-22T12:27:33;45.85;;;40.03;;
22470;SDS011;11402;51.374;6.594;2023-06-22T12:30:00;45.70;;;38.95;;
22470;SDS011;11402;51.374;6.594;2023-06-22T12:32:25;44.63;;;37.85;;
22470;SDS011;11402;51.374;6.594;2023-06-22T12:34:51;40.75;;;36.33;;
22470;SDS011;11402;51.374;6.594;2023-06-22T12:37:17;40.70;;;36.28;;
22470;SDS011;11402;51.374;6.594;2023-06-22T12:39:42;42.25;;;36.97;;
22470;SDS011;11402;51.374;6.594;2023-06-22T12:42:08;42.00;;;37.38;;
22470;SDS011;11402;51.374;6.594;2023-06-22T12:44:35;40.40;;;36.00;;
22470;SDS011;11402;51.374;6.594;2023-06-22T12:47:00;39.80;;;33.42;;
22470;SDS011;11402;51.374;6.594;2023-06-22T12:49:26;37.88;;;33.38;;
22470;SDS011;11402;51.374;6.594;2023-06-22T12:51:52;39.55;;;33.17;;
22470;SDS011;11402;51.374;6.594;2023-06-22T12:54:17;36.20;;;32.30;;
22470;SDS011;11402;51.374;6.594;2023-06-22T12:56:43;37.13;;;32.83;;
22470;SDS011;11402;51.374;6.594;2023-06-22T12:59:10;34.30;;;30.63;;
22470;SDS011;11402;51.374;6.594;2023-06-22T13:01:36;38.47;;;33.15;;
22470;SDS011;11402;51.374;6.594;2023-06-22T13:04:02;37.88;;;33.72;;
22470;SDS011;11402;51.374;6.594;2023-06-22T13:06:27;37.10;;;32.97;;
22470;SDS011;11402;51.374;6.594;2023-06-22T13:08:53;39.42;;;33.65;;
22470;SDS011;11402;51.374;6.594;2023-06-22T13:11:18;37.67;;;33.08;;
22470;SDS011;11402;51.374;6.594;2023-06-22T13:13:44;38.78;;;33.78;;
22470;SDS011;11402;51.374;6.594;2023-06-22T13:16:10;39.10;;;34.30;;
22470;SDS011;11402;51.374;6.594;2023-06-22T13:18:36;37.33;;;32.72;;
22470;SDS011;11402;51.374;6.594;2023-06-22T13:21:02;37.15;;;33.15;;
22470;SDS011;11402;51.374;6.594;2023-06-22T13:23:28;42.30;;;35.00;;
22470;SDS011;11402;51.374;6.594;2023-06-22T13:25:53;38.03;;;32.38;;
22470;SDS011;11402;51.374;6.594;2023-06-22T13:28:19;36.20;;;32.50;;
22470;SDS011;11402;51.374;6.594;2023-06-22T13:30:46;37.85;;;33.83;;
22470;SDS011;11402;51.374;6.594;2023-06-22T13:33:15;35.00;;;31.40;;
22470;SDS011;11402;51.374;6.594;2023-06-22T13:35:41;37.78;;;33.95;;
22470;SDS011;11402;51.374;6.594;2023-06-22T13:38:10;35.65;;;31.92;;
22470;SDS011;11402;51.374;6.594;2023-06-22T13:40:37;38.60;;;34.33;;
22470;SDS011;11402;51.374;6.594;2023-06-22T13:43:03;39.28;;;34.97;;
22470;SDS011;11402;51.374;6.594;2023-06-22T13:45:31;37.72;;;33.72;;
22470;SDS011;11402;51.374;6.594;2023-06-22T13:47:57;37.67;;;33.88;;
22470;SDS011;11402;51.374;6.594;2023-06-22T13:50:23;37.88;;;34.00;;
22470;SDS011;11402;51.374;6.594;2023-06-22T13:52:48;40.90;;;33.75;;
22470;SDS011;11402;51.374;6.594;2023-06-22T13:55:14;35.30;;;31.70;;
22470;SDS011;11402;51.374;6.594;2023-06-22T13:57:40;37.17;;;33.28;;
22470;SDS011;11402;51.374;6.594;2023-06-22T14:00:06;42.88;;;37.50;;
22470;SDS011;11402;51.374;6.594;2023-06-22T14:02:33;35.60;;;31.80;;
22470;SDS011;11402;51.374;6.594;2023-06-22T14:04:59;36.67;;;32.78;;
22470;SDS011;11402;51.374;6.594;2023-06-22T14:07:25;38.33;;;33.17;;
22470;SDS011;11402;51.374;6.594;2023-06-22T14:09:50;37.38;;;32.92;;
22470;SDS011;11402;51.374;6.594;2023-06-22T14:12:16;37.67;;;33.58;;
22470;SDS011;11402;51.374;6.594;2023-06-22T14:14:43;38.17;;;34.35;;
22470;SDS011;11402;51.374;6.594;2023-06-22T14:17:09;36.35;;;32.53;;
22470;SDS011;11402;51.374;6.594;2023-06-22T14:19:35;37.97;;;32.75;;
22470;SDS011;11402;51.374;6.594;2023-06-22T14:22:01;35.70;;;31.80;;
22470;SDS011;11402;51.374;6.594;2023-06-22T14:24:27;36.47;;;31.45;;
22470;SDS011;11402;51.374;6.594;2023-06-22T14:26:53;36.88;;;32.88;;